sensor_id;sensor_type;location;lat;lon;timestamp;temperature;humidity
16515;DHT22;8370;52.556;7.970;2022-12-29T00:01:19;9.20;99.90
16515;DHT22;8370;52.556;7.970;2022-12-29T00:03:47;9.20;99.90
16515;DHT22;8370;52.556;7.970;2022-12-29T00:06:13;9.30;99.90
16515;DHT22;8370;52.556;7.970;2022-12-29T00:08:38;9.40;99.90
16515;DHT22;8370;52.556;7.970;2022-12-29T00:11:16;9.40;99.90
16515;DHT22;8370;52.556;7.970;2022-12-29T00:13:42;9.40;99.90
16515;DHT22;8370;52.556;7.970;2022-12-29T00:16:27;9.50;99.90
16515;DHT22;8370;52.556;7.970;2022-12-29T00:18:52;9.50;99.90
16515;DHT22;8370;52.556;7.970;2022-12-29T00:21:20;9.60;99.90
16515;DHT22;8370;52.556;7.970;2022-12-29T00:24:04;9.60;99.90
16515;DHT22;8370;52.556;7.970;2022-12-29T00:26:55;9.70;99.90
16515;DHT22;8370;52.556;7.970;2022-12-29T00:29:40;9.70;99.90
16515;DHT22;8370;52.556;7.970;2022-12-29T00:32:24;9.80;99.90
16515;DHT22;8370;52.556;7.970;2022-12-29T00:35:10;9.80;99.90
16515;DHT22;8370;52.556;7.970;2022-12-29T00:37:39;9.80;99.90
16515;DHT22;8370;52.556;7.970;2022-12-29T00:40:24;9.80;99.90
16515;DHT22;8370;52.556;7.970;2022-12-29T00:43:08;9.80;99.90
16515;DHT22;8370;52.556;7.970;2022-12-29T00:45:52;9.80;99.90
16515;DHT22;8370;52.556;7.970;2022-12-29T00:48:17;9.90;99.90
16515;DHT22;8370;52.556;7.970;2022-12-29T00:51:03;10.00;99.90
16515;DHT22;8370;52.556;7.970;2022-12-29T00:53:28;10.00;99.90
16515;DHT22;8370;52.556;7.970;2022-12-29T00:55:54;10.00;99.90
16515;DHT22;8370;52.556;7.970;2022-12-29T00:58:19;10.00;99.90
16515;DHT22;8370;52.556;7.970;2022-12-29T01:00:45;10.10;99.90
16515;DHT22;8370;52.556;7.970;2022-12-29T01:03:10;10.10;99.90
16515;DHT22;8370;52.556;7.970;2022-12-29T01:05:36;10.10;99.90
16515;DHT22;8370;52.556;7.970;2022-12-29T01:08:02;10.20;99.90
16515;DHT22;8370;52.556;7.970;2022-12-29T01:10:28;10.20;99.90
16515;DHT22;8370;52.556;7.970;2022-12-29T01:12:53;10.20;99.90
16515;DHT22;8370;52.556;7.970;2022-12-29T01:15:19;10.20;99.90
16515;DHT22;8370;52.556;7.970;2022-12-29T01:17:44;10.20;99.90
16515;DHT22;8370;52.556;7.970;2022-12-29T01:20:10;10.30;99.90
16515;DHT22;8370;52.556;7.970;2022-12-29T01:22:36;10.20;99.90
16515;DHT22;8370;52.556;7.970;2022-12-29T01:25:03;10.20;99.90
16515;DHT22;8370;52.556;7.970;2022-12-29T01:27:28;10.30;99.90
16515;DHT22;8370;52.556;7.970;2022-12-29T01:29:54;10.30;99.90
16515;DHT22;8370;52.556;7.970;2022-12-29T01:32:19;10.30;99.90
16515;DHT22;8370;52.556;7.970;2022-12-29T01:34:45;10.30;99.90
16515;DHT22;8370;52.556;7.970;2022-12-29T01:37:11;10.30;99.90
16515;DHT22;8370;52.556;7.970;2022-12-29T01:39:36;10.40;99.90
16515;DHT22;8370;52.556;7.970;2022-12-29T01:42:02;10.40;99.90
16515;DHT22;8370;52.556;7.970;2022-12-29T01:44:47;10.40;99.90
16515;DHT22;8370;52.556;7.970;2022-12-29T01:47:21;10.40;99.90
16515;DHT22;8370;52.556;7.970;2022-12-29T01:49:48;10.40;99.90
16515;DHT22;8370;52.556;7.970;2022-12-29T01:52:14;10.40;99.90
16515;DHT22;8370;52.556;7.970;2022-12-29T01:54:46;10.40;99.90
16515;DHT22;8370;52.556;7.970;2022-12-29T01:57:18;10.40;99.90
16515;DHT22;8370;52.556;7.970;2022-12-29T01:59:56;10.40;99.90
16515;DHT22;8370;52.556;7.970;2022-12-29T02:02:24;10.40;99.90
16515;DHT22;8370;52.556;7.970;2022-12-29T02:04:50;10.40;99.90
16515;DHT22;8370;52.556;7.970;2022-12-29T02:07:19;10.40;99.90
16515;DHT22;8370;52.556;7.970;2022-12-29T02:09:48;10.40;99.90
16515;DHT22;8370;52.556;7.970;2022-12-29T02:12:14;10.40;99.90
16515;DHT22;8370;52.556;7.970;2022-12-29T02:14:40;10.40;99.90
16515;DHT22;8370;52.556;7.970;2022-12-29T02:17:28;10.30;99.90
16515;DHT22;8370;52.556;7.970;2022-12-29T02:20:02;10.30;99.90
16515;DHT22;8370;52.556;7.970;2022-12-29T02:36:06;10.00;99.90
16515;DHT22;8370;52.556;7.970;2022-12-29T02:38:46;10.00;99.90
16515;DHT22;8370;52.556;7.970;2022-12-29T02:41:34;10.00;99.90
16515;DHT22;8370;52.556;7.970;2022-12-29T02:44:14;10.00;99.90
16515;DHT22;8370;52.556;7.970;2022-12-29T02:46:47;10.00;99.90
16515;DHT22;8370;52.556;7.970;2022-12-29T02:49:25;10.00;99.90
16515;DHT22;8370;52.556;7.970;2022-12-29T02:52:06;9.90;99.90
16515;DHT22;8370;52.556;7.970;2022-12-29T02:54:33;9.90;99.90
16515;DHT22;8370;52.556;7.970;2022-12-29T02:59:52;9.80;99.90
16515;DHT22;8370;52.556;7.970;2022-12-29T03:10:41;9.80;99.90
16515;DHT22;8370;52.556;7.970;2022-12-29T03:13:39;9.70;99.90
16515;DHT22;8370;52.556;7.970;2022-12-29T03:16:41;9.80;99.90
16515;DHT22;8370;52.556;7.970;2022-12-29T03:19:25;9.80;99.90
16515;DHT22;8370;52.556;7.970;2022-12-29T03:21:56;9.90;99.90
16515;DHT22;8370;52.556;7.970;2022-12-29T03:24:44;9.90;99.90
16515;DHT22;8370;52.556;7.970;2022-12-29T03:27:21;9.90;99.90
16515;DHT22;8370;52.556;7.970;2022-12-29T03:29:55;9.90;99.90
16515;DHT22;8370;52.556;7.970;2022-12-29T03:32:26;9.90;99.90
16515;DHT22;8370;52.556;7.970;2022-12-29T03:34:53;10.00;99.90
16515;DHT22;8370;52.556;7.970;2022-12-29T03:37:22;10.00;99.90
16515;DHT22;8370;52.556;7.970;2022-12-29T03:39:49;10.00;99.90
16515;DHT22;8370;52.556;7.970;2022-12-29T03:42:17;10.00;99.90
16515;DHT22;8370;52.556;7.970;2022-12-29T03:44:45;10.00;99.90
16515;DHT22;8370;52.556;7.970;2022-12-29T03:47:12;10.10;99.90
16515;DHT22;8370;52.556;7.970;2022-12-29T03:49:38;10.10;99.90
16515;DHT22;8370;52.556;7.970;2022-12-29T03:52:04;10.10;99.90
16515;DHT22;8370;52.556;7.970;2022-12-29T03:54:30;10.00;99.90
16515;DHT22;8370;52.556;7.970;2022-12-29T03:56:56;10.00;99.90
16515;DHT22;8370;52.556;7.970;2022-12-29T03:59:22;10.10;99.90
16515;DHT22;8370;52.556;7.970;2022-12-29T04:01:47;10.10;99.90
16515;DHT22;8370;52.556;7.970;2022-12-29T04:04:13;10.10;99.90
16515;DHT22;8370;52.556;7.970;2022-12-29T04:06:39;10.10;99.90
16515;DHT22;8370;52.556;7.970;2022-12-29T04:09:05;10.10;99.90
16515;DHT22;8370;52.556;7.970;2022-12-29T04:11:30;10.10;99.90
16515;DHT22;8370;52.556;7.970;2022-12-29T04:13:56;10.10;99.90
16515;DHT22;8370;52.556;7.970;2022-12-29T04:16:22;10.20;99.90
16515;DHT22;8370;52.556;7.970;2022-12-29T04:18:47;10.30;99.90
16515;DHT22;8370;52.556;7.970;2022-12-29T04:21:13;10.30;99.90
16515;DHT22;8370;52.556;7.970;2022-12-29T04:23:38;10.40;99.90
16515;DHT22;8370;52.556;7.970;2022-12-29T04:26:05;10.50;99.90
16515;DHT22;8370;52.556;7.970;2022-12-29T04:28:32;10.50;99.90
16515;DHT22;8370;52.556;7.970;2022-12-29T04:30:57;10.50;99.90
16515;DHT22;8370;52.556;7.970;2022-12-29T04:33:23;10.50;99.90
16515;DHT22;8370;52.556;7.970;2022-12-29T04:35:49;10.60;99.90
16515;DHT22;8370;52.556;7.970;2022-12-29T04:38:15;10.60;99.90
16515;DHT22;8370;52.556;7.970;2022-12-29T04:40:42;10.70;99.90
16515;DHT22;8370;52.556;7.970;2022-12-29T04:43:08;10.70;99.90
16515;DHT22;8370;52.556;7.970;2022-12-29T04:45:33;10.70;99.90
16515;DHT22;8370;52.556;7.970;2022-12-29T04:47:59;10.80;99.90
16515;DHT22;8370;52.556;7.970;2022-12-29T04:50:24;10.80;99.90
16515;DHT22;8370;52.556;7.970;2022-12-29T04:52:50;10.90;99.90
16515;DHT22;8370;52.556;7.970;2022-12-29T04:55:15;10.90;99.90
16515;DHT22;8370;52.556;7.970;2022-12-29T04:57:41;11.00;99.90
16515;DHT22;8370;52.556;7.970;2022-12-29T05:00:07;11.00;99.90
16515;DHT22;8370;52.556;7.970;2022-12-29T05:02:34;11.00;99.90
16515;DHT22;8370;52.556;7.970;2022-12-29T05:05:00;11.00;99.90
16515;DHT22;8370;52.556;7.970;2022-12-29T05:07:25;11.00;99.90
16515;DHT22;8370;52.556;7.970;2022-12-29T05:09:51;11.10;99.90
16515;DHT22;8370;52.556;7.970;2022-12-29T05:12:16;11.10;99.90
16515;DHT22;8370;52.556;7.970;2022-12-29T05:14:42;11.20;99.90
16515;DHT22;8370;52.556;7.970;2022-12-29T05:17:07;11.20;99.90
16515;DHT22;8370;52.556;7.970;2022-12-29T05:19:33;11.20;99.90
16515;DHT22;8370;52.556;7.970;2022-12-29T05:21:58;11.20;99.90
16515;DHT22;8370;52.556;7.970;2022-12-29T05:24:24;11.20;99.90
16515;DHT22;8370;52.556;7.970;2022-12-29T05:26:49;11.20;99.90
16515;DHT22;8370;52.556;7.970;2022-12-29T05:29:15;11.10;99.90
16515;DHT22;8370;52.556;7.970;2022-12-29T05:31:40;10.80;99.90
16515;DHT22;8370;52.556;7.970;2022-12-29T05:34:06;10.60;99.90
16515;DHT22;8370;52.556;7.970;2022-12-29T05:36:31;10.50;99.90
16515;DHT22;8370;52.556;7.970;2022-12-29T05:38:57;10.30;99.90
16515;DHT22;8370;52.556;7.970;2022-12-29T05:41:22;10.30;99.90
16515;DHT22;8370;52.556;7.970;2022-12-29T05:43:48;10.20;99.90
16515;DHT22;8370;52.556;7.970;2022-12-29T05:46:13;10.10;99.90
16515;DHT22;8370;52.556;7.970;2022-12-29T05:48:39;10.10;99.90
16515;DHT22;8370;52.556;7.970;2022-12-29T05:51:04;10.10;99.90
16515;DHT22;8370;52.556;7.970;2022-12-29T05:53:30;10.00;99.90
16515;DHT22;8370;52.556;7.970;2022-12-29T05:55:55;10.00;99.90
16515;DHT22;8370;52.556;7.970;2022-12-29T05:58:21;10.00;99.90
16515;DHT22;8370;52.556;7.970;2022-12-29T06:00:46;10.00;99.90
16515;DHT22;8370;52.556;7.970;2022-12-29T06:03:12;10.00;99.90
16515;DHT22;8370;52.556;7.970;2022-12-29T06:05:37;10.00;99.90
16515;DHT22;8370;52.556;7.970;2022-12-29T06:08:03;10.00;99.90
16515;DHT22;8370;52.556;7.970;2022-12-29T06:10:28;9.90;99.90
16515;DHT22;8370;52.556;7.970;2022-12-29T06:12:54;9.80;99.90
16515;DHT22;8370;52.556;7.970;2022-12-29T06:15:19;9.80;99.90
16515;DHT22;8370;52.556;7.970;2022-12-29T06:17:45;9.70;99.90
16515;DHT22;8370;52.556;7.970;2022-12-29T06:20:11;9.60;99.90
16515;DHT22;8370;52.556;7.970;2022-12-29T06:22:36;9.60;99.90
16515;DHT22;8370;52.556;7.970;2022-12-29T06:25:02;9.50;99.90
16515;DHT22;8370;52.556;7.970;2022-12-29T06:27:29;9.40;99.90
16515;DHT22;8370;52.556;7.970;2022-12-29T06:29:54;9.30;99.90
16515;DHT22;8370;52.556;7.970;2022-12-29T06:32:20;9.30;99.90
16515;DHT22;8370;52.556;7.970;2022-12-29T06:34:46;9.20;99.90
16515;DHT22;8370;52.556;7.970;2022-12-29T06:37:12;9.20;99.90
16515;DHT22;8370;52.556;7.970;2022-12-29T06:39:37;9.20;99.90
16515;DHT22;8370;52.556;7.970;2022-12-29T06:42:03;9.20;99.90
16515;DHT22;8370;52.556;7.970;2022-12-29T06:44:29;9.20;99.90
16515;DHT22;8370;52.556;7.970;2022-12-29T06:46:54;9.20;99.90
16515;DHT22;8370;52.556;7.970;2022-12-29T06:49:20;9.10;99.90
16515;DHT22;8370;52.556;7.970;2022-12-29T06:51:45;9.10;99.90
16515;DHT22;8370;52.556;7.970;2022-12-29T06:54:11;8.90;99.90
16515;DHT22;8370;52.556;7.970;2022-12-29T06:56:37;8.60;99.90
16515;DHT22;8370;52.556;7.970;2022-12-29T06:59:02;8.50;99.90
16515;DHT22;8370;52.556;7.970;2022-12-29T07:01:28;8.50;99.90
16515;DHT22;8370;52.556;7.970;2022-12-29T07:03:54;8.50;99.90
16515;DHT22;8370;52.556;7.970;2022-12-29T07:06:20;8.60;99.90
16515;DHT22;8370;52.556;7.970;2022-12-29T07:08:46;8.60;99.90
16515;DHT22;8370;52.556;7.970;2022-12-29T07:11:11;8.70;99.90
16515;DHT22;8370;52.556;7.970;2022-12-29T07:13:37;8.70;99.90
16515;DHT22;8370;52.556;7.970;2022-12-29T07:16:09;8.80;99.90
16515;DHT22;8370;52.556;7.970;2022-12-29T07:18:35;8.80;99.90
16515;DHT22;8370;52.556;7.970;2022-12-29T07:21:01;8.80;99.90
16515;DHT22;8370;52.556;7.970;2022-12-29T07:23:27;8.80;99.90
16515;DHT22;8370;52.556;7.970;2022-12-29T07:26:06;8.90;99.90
16515;DHT22;8370;52.556;7.970;2022-12-29T07:28:32;8.80;99.90
16515;DHT22;8370;52.556;7.970;2022-12-29T07:30:58;8.80;99.90
16515;DHT22;8370;52.556;7.970;2022-12-29T07:33:24;8.70;99.90
16515;DHT22;8370;52.556;7.970;2022-12-29T07:35:50;8.70;99.90
16515;DHT22;8370;52.556;7.970;2022-12-29T07:38:16;8.70;99.90
16515;DHT22;8370;52.556;7.970;2022-12-29T07:40:42;8.60;99.90
16515;DHT22;8370;52.556;7.970;2022-12-29T07:43:08;8.60;99.90
16515;DHT22;8370;52.556;7.970;2022-12-29T07:45:33;8.50;99.90
16515;DHT22;8370;52.556;7.970;2022-12-29T07:47:59;8.50;99.90
16515;DHT22;8370;52.556;7.970;2022-12-29T07:50:24;8.50;99.90
16515;DHT22;8370;52.556;7.970;2022-12-29T07:52:50;8.50;99.90
16515;DHT22;8370;52.556;7.970;2022-12-29T07:55:16;8.60;99.90
16515;DHT22;8370;52.556;7.970;2022-12-29T07:57:42;8.60;99.90
16515;DHT22;8370;52.556;7.970;2022-12-29T08:00:09;8.60;99.90
16515;DHT22;8370;52.556;7.970;2022-12-29T08:02:35;8.60;99.90
16515;DHT22;8370;52.556;7.970;2022-12-29T08:05:00;8.60;99.90
16515;DHT22;8370;52.556;7.970;2022-12-29T08:07:26;8.60;99.90
16515;DHT22;8370;52.556;7.970;2022-12-29T08:09:51;8.50;99.90
16515;DHT22;8370;52.556;7.970;2022-12-29T08:12:17;8.50;99.90
16515;DHT22;8370;52.556;7.970;2022-12-29T08:14:43;8.50;99.90
16515;DHT22;8370;52.556;7.970;2022-12-29T08:17:08;8.50;99.90
16515;DHT22;8370;52.556;7.970;2022-12-29T08:19:35;8.50;99.90
16515;DHT22;8370;52.556;7.970;2022-12-29T08:22:01;8.50;99.90
16515;DHT22;8370;52.556;7.970;2022-12-29T08:24:26;8.50;99.90
16515;DHT22;8370;52.556;7.970;2022-12-29T08:26:52;8.50;99.90
16515;DHT22;8370;52.556;7.970;2022-12-29T08:29:18;8.50;99.90
16515;DHT22;8370;52.556;7.970;2022-12-29T08:31:43;8.60;99.90
16515;DHT22;8370;52.556;7.970;2022-12-29T08:34:09;8.50;99.90
16515;DHT22;8370;52.556;7.970;2022-12-29T08:36:34;8.50;99.90
16515;DHT22;8370;52.556;7.970;2022-12-29T08:39:00;8.50;99.90
16515;DHT22;8370;52.556;7.970;2022-12-29T08:41:26;8.50;99.90
16515;DHT22;8370;52.556;7.970;2022-12-29T08:43:51;8.50;99.90
16515;DHT22;8370;52.556;7.970;2022-12-29T08:46:17;8.50;99.90
16515;DHT22;8370;52.556;7.970;2022-12-29T08:48:42;8.40;99.90
16515;DHT22;8370;52.556;7.970;2022-12-29T08:51:08;8.40;99.90
16515;DHT22;8370;52.556;7.970;2022-12-29T08:53:34;8.40;99.90
16515;DHT22;8370;52.556;7.970;2022-12-29T08:56:00;8.40;99.90
16515;DHT22;8370;52.556;7.970;2022-12-29T08:58:26;8.40;99.90
16515;DHT22;8370;52.556;7.970;2022-12-29T09:00:53;8.40;99.90
16515;DHT22;8370;52.556;7.970;2022-12-29T09:03:19;8.40;99.90
16515;DHT22;8370;52.556;7.970;2022-12-29T09:05:48;8.40;99.90
16515;DHT22;8370;52.556;7.970;2022-12-29T09:08:13;8.40;99.90
16515;DHT22;8370;52.556;7.970;2022-12-29T09:10:39;8.50;99.90
16515;DHT22;8370;52.556;7.970;2022-12-29T09:13:04;8.50;99.90
16515;DHT22;8370;52.556;7.970;2022-12-29T09:15:30;8.50;99.90
16515;DHT22;8370;52.556;7.970;2022-12-29T09:17:55;8.50;99.90
16515;DHT22;8370;52.556;7.970;2022-12-29T09:20:21;8.50;99.90
16515;DHT22;8370;52.556;7.970;2022-12-29T09:22:47;8.60;99.90
16515;DHT22;8370;52.556;7.970;2022-12-29T09:25:13;8.60;99.90
16515;DHT22;8370;52.556;7.970;2022-12-29T09:27:38;8.60;99.90
16515;DHT22;8370;52.556;7.970;2022-12-29T09:30:06;8.60;99.90
16515;DHT22;8370;52.556;7.970;2022-12-29T09:32:33;8.70;99.90
16515;DHT22;8370;52.556;7.970;2022-12-29T09:34:58;8.70;99.90
16515;DHT22;8370;52.556;7.970;2022-12-29T09:37:24;8.70;99.90
16515;DHT22;8370;52.556;7.970;2022-12-29T09:39:49;8.70;99.90
16515;DHT22;8370;52.556;7.970;2022-12-29T09:42:19;8.80;99.90
16515;DHT22;8370;52.556;7.970;2022-12-29T09:45:16;8.80;99.90
16515;DHT22;8370;52.556;7.970;2022-12-29T09:47:43;8.90;99.90
16515;DHT22;8370;52.556;7.970;2022-12-29T09:50:24;8.90;99.90
16515;DHT22;8370;52.556;7.970;2022-12-29T09:53:03;8.90;99.90
16515;DHT22;8370;52.556;7.970;2022-12-29T09:55:39;9.10;99.90
16515;DHT22;8370;52.556;7.970;2022-12-29T09:58:14;9.20;99.90
16515;DHT22;8370;52.556;7.970;2022-12-29T10:01:01;9.30;99.90
16515;DHT22;8370;52.556;7.970;2022-12-29T10:03:40;9.70;99.90
16515;DHT22;8370;52.556;7.970;2022-12-29T10:06:14;10.00;99.90
16515;DHT22;8370;52.556;7.970;2022-12-29T10:08:47;10.10;99.90
16515;DHT22;8370;52.556;7.970;2022-12-29T10:19:48;10.90;99.90
16515;DHT22;8370;52.556;7.970;2022-12-29T10:22:32;11.00;99.90
16515;DHT22;8370;52.556;7.970;2022-12-29T10:25:02;11.30;99.90
16515;DHT22;8370;52.556;7.970;2022-12-29T10:27:35;11.40;99.90
16515;DHT22;8370;52.556;7.970;2022-12-29T10:30:02;11.40;99.90
16515;DHT22;8370;52.556;7.970;2022-12-29T10:32:52;11.50;99.90
16515;DHT22;8370;52.556;7.970;2022-12-29T10:35:21;11.60;99.90
16515;DHT22;8370;52.556;7.970;2022-12-29T10:37:56;11.50;99.90
16515;DHT22;8370;52.556;7.970;2022-12-29T10:45:46;11.60;99.90
16515;DHT22;8370;52.556;7.970;2022-12-29T10:48:33;11.60;99.90
16515;DHT22;8370;52.556;7.970;2022-12-29T10:51:02;11.70;99.90
16515;DHT22;8370;52.556;7.970;2022-12-29T10:53:43;11.70;99.90
16515;DHT22;8370;52.556;7.970;2022-12-29T10:56:34;11.70;99.90
16515;DHT22;8370;52.556;7.970;2022-12-29T10:59:25;11.70;99.90
16515;DHT22;8370;52.556;7.970;2022-12-29T11:04:40;11.80;99.90
16515;DHT22;8370;52.556;7.970;2022-12-29T11:07:08;11.80;99.90
16515;DHT22;8370;52.556;7.970;2022-12-29T11:09:36;11.80;99.90
16515;DHT22;8370;52.556;7.970;2022-12-29T11:12:26;11.80;99.90
16515;DHT22;8370;52.556;7.970;2022-12-29T11:17:47;11.90;99.90
16515;DHT22;8370;52.556;7.970;2022-12-29T11:20:34;11.90;99.90
16515;DHT22;8370;52.556;7.970;2022-12-29T11:23:02;11.90;99.90
16515;DHT22;8370;52.556;7.970;2022-12-29T11:25:28;12.00;99.90
16515;DHT22;8370;52.556;7.970;2022-12-29T11:28:03;12.00;99.90
16515;DHT22;8370;52.556;7.970;2022-12-29T11:30:37;12.00;99.90
16515;DHT22;8370;52.556;7.970;2022-12-29T11:33:03;12.00;99.90
16515;DHT22;8370;52.556;7.970;2022-12-29T11:35:50;11.90;99.90
16515;DHT22;8370;52.556;7.970;2022-12-29T11:38:20;11.90;99.90
16515;DHT22;8370;52.556;7.970;2022-12-29T11:40:48;11.90;99.90
16515;DHT22;8370;52.556;7.970;2022-12-29T11:43:31;11.80;99.90
16515;DHT22;8370;52.556;7.970;2022-12-29T11:45:59;11.80;99.90
16515;DHT22;8370;52.556;7.970;2022-12-29T11:48:29;11.80;99.90
16515;DHT22;8370;52.556;7.970;2022-12-29T11:50:58;11.80;99.90
16515;DHT22;8370;52.556;7.970;2022-12-29T11:53:38;11.80;99.90
16515;DHT22;8370;52.556;7.970;2022-12-29T11:56:13;11.70;99.90
16515;DHT22;8370;52.556;7.970;2022-12-29T11:58:40;11.70;99.90
16515;DHT22;8370;52.556;7.970;2022-12-29T12:01:19;11.60;99.90
16515;DHT22;8370;52.556;7.970;2022-12-29T12:04:01;11.60;99.90
16515;DHT22;8370;52.556;7.970;2022-12-29T12:06:29;11.60;99.90
16515;DHT22;8370;52.556;7.970;2022-12-29T12:09:02;11.50;99.90
16515;DHT22;8370;52.556;7.970;2022-12-29T12:11:34;11.50;99.90
16515;DHT22;8370;52.556;7.970;2022-12-29T12:14:23;11.40;99.90
16515;DHT22;8370;52.556;7.970;2022-12-29T12:16:55;11.40;99.90
16515;DHT22;8370;52.556;7.970;2022-12-29T12:19:38;11.30;99.90
16515;DHT22;8370;52.556;7.970;2022-12-29T12:22:34;10.90;99.90
16515;DHT22;8370;52.556;7.970;2022-12-29T12:25:20;10.80;99.90
16515;DHT22;8370;52.556;7.970;2022-12-29T12:28:00;10.90;99.90
16515;DHT22;8370;52.556;7.970;2022-12-29T12:30:33;10.90;99.90
16515;DHT22;8370;52.556;7.970;2022-12-29T12:36:09;10.90;99.90
16515;DHT22;8370;52.556;7.970;2022-12-29T12:41:29;10.80;99.90
16515;DHT22;8370;52.556;7.970;2022-12-29T12:44:01;10.60;99.90
16515;DHT22;8370;52.556;7.970;2022-12-29T12:52:32;10.00;99.90
16515;DHT22;8370;52.556;7.970;2022-12-29T12:57:50;10.00;99.90
16515;DHT22;8370;52.556;7.970;2022-12-29T13:00:19;10.00;99.90
16515;DHT22;8370;52.556;7.970;2022-12-29T13:03:05;10.00;99.90
16515;DHT22;8370;52.556;7.970;2022-12-29T13:08:49;10.00;99.90
16515;DHT22;8370;52.556;7.970;2022-12-29T13:19:51;10.10;99.90
16515;DHT22;8370;52.556;7.970;2022-12-29T13:22:28;10.10;99.90
16515;DHT22;8370;52.556;7.970;2022-12-29T13:25:21;10.10;99.90
16515;DHT22;8370;52.556;7.970;2022-12-29T13:27:54;10.20;99.90
16515;DHT22;8370;52.556;7.970;2022-12-29T13:30:26;10.30;99.90
16515;DHT22;8370;52.556;7.970;2022-12-29T13:33:04;10.30;99.90
16515;DHT22;8370;52.556;7.970;2022-12-29T13:36:05;10.30;99.90
16515;DHT22;8370;52.556;7.970;2022-12-29T13:38:42;10.30;99.90
16515;DHT22;8370;52.556;7.970;2022-12-29T13:41:14;10.40;99.90
16515;DHT22;8370;52.556;7.970;2022-12-29T13:43:43;10.50;99.90
16515;DHT22;8370;52.556;7.970;2022-12-29T13:46:27;10.60;99.90
16515;DHT22;8370;52.556;7.970;2022-12-29T13:48:59;10.60;99.90
16515;DHT22;8370;52.556;7.970;2022-12-29T13:51:25;10.70;99.90
16515;DHT22;8370;52.556;7.970;2022-12-29T13:54:03;10.60;99.90
16515;DHT22;8370;52.556;7.970;2022-12-29T13:59:24;10.60;99.90
16515;DHT22;8370;52.556;7.970;2022-12-29T14:02:03;10.60;99.90
16515;DHT22;8370;52.556;7.970;2022-12-29T14:04:33;10.70;99.90
16515;DHT22;8370;52.556;7.970;2022-12-29T14:07:15;10.60;99.90
16515;DHT22;8370;52.556;7.970;2022-12-29T14:09:47;10.60;99.90
16515;DHT22;8370;52.556;7.970;2022-12-29T14:12:30;10.50;99.90
16515;DHT22;8370;52.556;7.970;2022-12-29T14:17:37;10.50;99.90
16515;DHT22;8370;52.556;7.970;2022-12-29T14:20:06;10.50;99.90
16515;DHT22;8370;52.556;7.970;2022-12-29T14:22:56;10.40;99.90
16515;DHT22;8370;52.556;7.970;2022-12-29T14:28:28;10.40;99.90
16515;DHT22;8370;52.556;7.970;2022-12-29T14:30:59;10.30;99.90
16515;DHT22;8370;52.556;7.970;2022-12-29T14:33:26;10.30;99.90
16515;DHT22;8370;52.556;7.970;2022-12-29T14:35:53;10.20;99.90
16515;DHT22;8370;52.556;7.970;2022-12-29T14:38:22;10.10;99.90
16515;DHT22;8370;52.556;7.970;2022-12-29T14:40:49;10.10;99.90
16515;DHT22;8370;52.556;7.970;2022-12-29T14:43:20;10.10;99.90
16515;DHT22;8370;52.556;7.970;2022-12-29T14:45:59;10.00;99.90
16515;DHT22;8370;52.556;7.970;2022-12-29T14:48:33;10.00;99.90
16515;DHT22;8370;52.556;7.970;2022-12-29T14:51:00;9.90;99.90
16515;DHT22;8370;52.556;7.970;2022-12-29T14:53:47;9.90;99.90
16515;DHT22;8370;52.556;7.970;2022-12-29T14:56:25;9.90;99.90
16515;DHT22;8370;52.556;7.970;2022-12-29T14:59:00;9.90;99.90
16515;DHT22;8370;52.556;7.970;2022-12-29T15:01:43;10.00;99.90
16515;DHT22;8370;52.556;7.970;2022-12-29T15:04:27;10.00;99.90
16515;DHT22;8370;52.556;7.970;2022-12-29T15:06:55;9.90;99.90
16515;DHT22;8370;52.556;7.970;2022-12-29T15:14:47;10.10;99.90
16515;DHT22;8370;52.556;7.970;2022-12-29T15:17:30;10.00;99.90
16515;DHT22;8370;52.556;7.970;2022-12-29T15:19:59;10.00;99.90
16515;DHT22;8370;52.556;7.970;2022-12-29T15:22:25;10.00;99.90
16515;DHT22;8370;52.556;7.970;2022-12-29T15:24:52;10.00;99.90
16515;DHT22;8370;52.556;7.970;2022-12-29T15:27:25;10.00;99.90
16515;DHT22;8370;52.556;7.970;2022-12-29T15:30:00;9.90;99.90
16515;DHT22;8370;52.556;7.970;2022-12-29T15:32:39;9.80;99.90
16515;DHT22;8370;52.556;7.970;2022-12-29T15:35:29;9.90;99.90
16515;DHT22;8370;52.556;7.970;2022-12-29T15:37:55;10.00;99.90
16515;DHT22;8370;52.556;7.970;2022-12-29T15:40:28;10.10;99.90
16515;DHT22;8370;52.556;7.970;2022-12-29T15:45:38;10.10;99.90
16515;DHT22;8370;52.556;7.970;2022-12-29T15:48:04;10.10;99.90
16515;DHT22;8370;52.556;7.970;2022-12-29T15:50:34;10.10;99.90
16515;DHT22;8370;52.556;7.970;2022-12-29T15:53:02;10.10;99.90
16515;DHT22;8370;52.556;7.970;2022-12-29T15:55:34;10.20;99.90
16515;DHT22;8370;52.556;7.970;2022-12-29T15:58:02;10.20;99.90
16515;DHT22;8370;52.556;7.970;2022-12-29T16:00:33;10.30;99.90
16515;DHT22;8370;52.556;7.970;2022-12-29T16:03:02;10.30;99.90
16515;DHT22;8370;52.556;7.970;2022-12-29T16:05:39;10.30;99.90
16515;DHT22;8370;52.556;7.970;2022-12-29T16:08:37;10.30;99.90
16515;DHT22;8370;52.556;7.970;2022-12-29T16:11:21;10.30;99.90
16515;DHT22;8370;52.556;7.970;2022-12-29T16:13:48;10.30;99.90
16515;DHT22;8370;52.556;7.970;2022-12-29T16:16:20;10.30;99.90
16515;DHT22;8370;52.556;7.970;2022-12-29T16:18:47;10.30;99.90
16515;DHT22;8370;52.556;7.970;2022-12-29T16:21:20;10.40;99.90
16515;DHT22;8370;52.556;7.970;2022-12-29T16:23:50;10.30;99.90
16515;DHT22;8370;52.556;7.970;2022-12-29T16:26:17;10.40;99.90
16515;DHT22;8370;52.556;7.970;2022-12-29T16:28:44;10.40;99.90
16515;DHT22;8370;52.556;7.970;2022-12-29T16:31:24;10.20;99.90
16515;DHT22;8370;52.556;7.970;2022-12-29T16:33:54;10.30;99.90
16515;DHT22;8370;52.556;7.970;2022-12-29T16:38:49;10.20;99.90
16515;DHT22;8370;52.556;7.970;2022-12-29T16:41:31;10.30;99.90
16515;DHT22;8370;52.556;7.970;2022-12-29T16:44:22;10.10;99.90
16515;DHT22;8370;52.556;7.970;2022-12-29T16:47:01;10.10;99.90
16515;DHT22;8370;52.556;7.970;2022-12-29T16:49:28;10.10;99.90
16515;DHT22;8370;52.556;7.970;2022-12-29T16:51:54;10.10;99.90
16515;DHT22;8370;52.556;7.970;2022-12-29T16:54:35;10.10;99.90
16515;DHT22;8370;52.556;7.970;2022-12-29T16:57:02;10.20;99.90
16515;DHT22;8370;52.556;7.970;2022-12-29T16:59:40;10.10;99.90
16515;DHT22;8370;52.556;7.970;2022-12-29T17:02:14;10.10;99.90
16515;DHT22;8370;52.556;7.970;2022-12-29T17:04:40;9.90;99.90
16515;DHT22;8370;52.556;7.970;2022-12-29T17:07:17;9.80;99.90
16515;DHT22;8370;52.556;7.970;2022-12-29T17:09:43;9.80;99.90
16515;DHT22;8370;52.556;7.970;2022-12-29T17:12:13;9.90;99.90
16515;DHT22;8370;52.556;7.970;2022-12-29T17:14:57;9.90;99.90
16515;DHT22;8370;52.556;7.970;2022-12-29T17:17:43;9.90;99.90
16515;DHT22;8370;52.556;7.970;2022-12-29T17:20:20;9.90;99.90
16515;DHT22;8370;52.556;7.970;2022-12-29T17:22:47;9.80;99.90
16515;DHT22;8370;52.556;7.970;2022-12-29T17:25:14;9.80;99.90
16515;DHT22;8370;52.556;7.970;2022-12-29T17:27:44;9.80;99.90
16515;DHT22;8370;52.556;7.970;2022-12-29T17:30:13;9.80;99.90
16515;DHT22;8370;52.556;7.970;2022-12-29T17:32:41;9.70;99.90
16515;DHT22;8370;52.556;7.970;2022-12-29T17:35:15;9.60;99.90
16515;DHT22;8370;52.556;7.970;2022-12-29T17:37:41;9.50;99.90
16515;DHT22;8370;52.556;7.970;2022-12-29T17:40:11;9.60;99.90
16515;DHT22;8370;52.556;7.970;2022-12-29T17:42:44;9.60;99.90
16515;DHT22;8370;52.556;7.970;2022-12-29T17:45:15;9.50;99.90